Weather at Wick Airport

Public forecast

Using degrees Celsius for public forecast. Weather courtesy of forecast.io.

Current aviation weather report (METAR) for Wick Airport

Retrieved 2021/07/31 04:20 UTC (9 minutes ago):

EGPC 310420Z AUTO 33008KT 9999 BKN012/// BKN022/// 10/09 Q1005

Closest aviation forecast (TAF) to Wick Airport

Closest forecast is RAF Lossiemouth, 45.9 nm (85.0 km) S. Retrieved 2021-07-31 03:06 UTC (1 hour ago):

TAF EGQS 310106Z 3103/3121 35010KT 9999 FEW010 BKN025 TEMPO 3103/3106 4000 RADZ SCT010 TEMPO 3106/3121 SCT020 PROB30 TEMPO 3106/3121 6000 -SHRA SCT014